Snow/Ice From: 16-12-2017 16:00 Until: 17-12-2017 16:00 warning for: Snow/Ice Level: Yellow info button

Although rather usual in this region, locally or potentially dangerous phenomena are expected. (such as local winds, summer thunderstorms, rising streams or high waves) Be aware and pay attention to the latest weather updates, especially if you carry out activities exposed to weather or close to a stream or shoreline. 


Meteo18 Weather Cam more information Meteo18 Weather Cam


Thunder radar more information blitzortung!


warning for Snow/Ice more information rain snow radar


Visit our other weather sites:

Template documentation
and downloads

And another site



Weather Underground History page Text

Daily Summary for November 22, 2016 Units:  Metric    English   Both
« Previous Day
Next Day »
Daily Weekly Monthly Yearly Custom
  High: Low: Average:
Temperature: 10.5 °C 8.2 °C 9.3 °C
Dew Point: 8.7 °C 6.6 °C 8 °C
Humidity: 96 % 85 % 92 %
Wind Speed: 12.9 km/h 0.0 km/h 3.6 km/h
Wind Gust: 20.9 km/h - -
Wind:- - SSE
Pressure: 1012.4 hPa 1003.9 hPa -
Precipitation: 3.8 mm    
Historical Graphs
 
 
Tabular Data for November 22, 2016
Time Temperature Dew Point Pressure Wind Wind Speed Wind Gust Humidity Rainfall Rate (Hourly)
00:02 10.5 °C 8.1 °C 1003.9 hPa SW 9.7 km/h 17.7 km/h 85 % 0.0 mm
00:07 10.4 °C 8.2 °C 1003.9 hPa SSW 6.4 km/h 17.7 km/h 86 % 0.0 mm
00:12 10.2 °C 8.0 °C 1003.9 hPa SSW 6.4 km/h 17.7 km/h 86 % 0.0 mm
00:17 10.1 °C 7.9 °C 1003.9 hPa SSW 4.8 km/h 16.1 km/h 86 % 0.0 mm
00:22 10.0 °C 7.8 °C 1003.9 hPa SSW 9.7 km/h 11.3 km/h 86 % 0.0 mm
00:32 9.9 °C 7.7 °C 1004.3 hPa SSW 6.4 km/h 11.3 km/h 86 % 0.0 mm
00:37 9.8 °C 7.6 °C 1004.3 hPa SW 4.8 km/h 11.3 km/h 86 % 0.0 mm
00:42 9.8 °C 7.6 °C 1004.3 hPa SW 8.0 km/h 14.5 km/h 86 % 0.0 mm
00:52 9.3 °C 7.2 °C 1004.3 hPa SSW 4.8 km/h 12.9 km/h 87 % 0.0 mm
00:57 9.2 °C 7.3 °C 1004.3 hPa SSW 3.2 km/h 9.7 km/h 88 % 0.0 mm
01:02 9.3 °C 7.4 °C 1004.6 hPa SSW 6.4 km/h 9.7 km/h 88 % 0.0 mm
01:07 9.3 °C 7.2 °C 1004.6 hPa South 4.8 km/h 11.3 km/h 87 % 0.0 mm
01:12 9.3 °C 7.2 °C 1004.6 hPa SSW 1.6 km/h 11.3 km/h 87 % 0.0 mm
01:17 9.3 °C 7.2 °C 1004.6 hPa SSE 6.4 km/h 11.3 km/h 87 % 0.0 mm
01:22 9.3 °C 7.2 °C 1004.6 hPa South 3.2 km/h 11.3 km/h 87 % 0.0 mm
01:32 9.1 °C 7.1 °C 1005.0 hPa SSW 6.4 km/h 8.0 km/h 87 % 0.0 mm
01:37 9.1 °C 7.1 °C 1005.0 hPa South 6.4 km/h 12.9 km/h 87 % 0.0 mm
01:42 9.1 °C 7.1 °C 1005.0 hPa SW 11.3 km/h 12.9 km/h 87 % 0.0 mm
01:47 9.3 °C 7.1 °C 1005.0 hPa SSW 8.0 km/h 17.7 km/h 86 % 0.0 mm
01:52 9.3 °C 6.9 °C 1005.0 hPa South 4.8 km/h 17.7 km/h 85 % 0.0 mm
02:02 8.9 °C 6.9 °C 1005.0 hPa SSW 1.6 km/h 17.7 km/h 87 % 0.0 mm
02:07 8.8 °C 6.9 °C 1005.0 hPa SSW 1.6 km/h 9.7 km/h 88 % 0.0 mm
02:12 8.8 °C 6.9 °C 1005.3 hPa SSW 4.8 km/h 6.4 km/h 88 % 0.0 mm
02:17 8.7 °C 6.8 °C 1005.3 hPa South 1.6 km/h 4.8 km/h 88 % 0.0 mm
02:22 8.6 °C 6.7 °C 1005.3 hPa SSW 3.2 km/h 4.8 km/h 88 % 0.0 mm
02:27 8.3 °C 6.6 °C 1005.3 hPa SW 4.8 km/h 4.8 km/h 89 % 0.0 mm
02:32 8.3 °C 6.6 °C 1005.3 hPa SSE 1.6 km/h 4.8 km/h 89 % 0.0 mm
02:37 8.3 °C 6.8 °C 1005.3 hPa South 1.6 km/h 4.8 km/h 90 % 0.0 mm
02:42 8.2 °C 6.7 °C 1005.3 hPa SSW 1.6 km/h 4.8 km/h 90 % 0.0 mm
02:47 8.3 °C 6.9 °C 1005.6 hPa SSW 1.6 km/h 4.8 km/h 91 % 0.0 mm
02:52 8.4 °C 7.0 °C 1005.6 hPa SSW 1.6 km/h 4.8 km/h 91 % 0.0 mm
02:57 8.4 °C 7.0 °C 1005.6 hPa SSW 3.2 km/h 4.8 km/h 91 % 0.0 mm
03:02 8.5 °C 7.3 °C 1005.6 hPa SSW 3.2 km/h 4.8 km/h 92 % 0.0 mm
03:07 8.4 °C 7.2 °C 1006.0 hPa South 1.6 km/h 4.8 km/h 92 % 0.0 mm
03:12 8.4 °C 7.2 °C 1005.6 hPa SSW 1.6 km/h 4.8 km/h 92 % 0.0 mm
03:17 8.4 °C 7.2 °C 1006.0 hPa SSW 3.2 km/h 4.8 km/h 92 % 0.0 mm
03:22 8.4 °C 7.2 °C 1006.3 hPa SSW 3.2 km/h 4.8 km/h 92 % 0.0 mm
03:32 8.5 °C 7.4 °C 1006.0 hPa SSW 3.2 km/h 6.4 km/h 93 % 0.0 mm
03:42 8.7 °C 7.8 °C 1006.0 hPa SSW 3.2 km/h 6.4 km/h 94 % 0.0 mm
03:52 9.1 °C 8.0 °C 1006.3 hPa SE 3.2 km/h 11.3 km/h 93 % 0.0 mm
03:57 9.1 °C 8.0 °C 1006.3 hPa SE 4.8 km/h 11.3 km/h 93 % 0.0 mm
04:02 9.1 °C 8.0 °C 1006.3 hPa SE 4.8 km/h 11.3 km/h 93 % 0.0 mm
04:07 9.1 °C 8.0 °C 1006.3 hPa South 6.4 km/h 9.7 km/h 93 % 0.0 mm
04:12 9.1 °C 8.0 °C 1006.3 hPa SSW 1.6 km/h 9.7 km/h 93 % 0.0 mm
04:17 9.1 °C 8.0 °C 1006.7 hPa SE 3.2 km/h 9.7 km/h 93 % 0.0 mm
04:22 9.2 °C 8.1 °C 1006.7 hPa SSE 3.2 km/h 9.7 km/h 93 % 0.0 mm
04:27 9.2 °C 8.1 °C 1006.7 hPa ESE 4.8 km/h 9.7 km/h 93 % 0.0 mm
04:32 9.2 °C 8.1 °C 1006.7 hPa SSE 3.2 km/h 9.7 km/h 93 % 0.0 mm
04:37 9.3 °C 8.2 °C 1006.7 hPa South 3.2 km/h 9.7 km/h 93 % 0.0 mm
04:42 9.3 °C 8.2 °C 1006.7 hPa South 4.8 km/h 9.7 km/h 93 % 0.0 mm
04:47 9.3 °C 8.1 °C 1007.0 hPa SSE 3.2 km/h 9.7 km/h 92 % 0.0 mm
04:52 9.3 °C 8.1 °C 1007.0 hPa SSE 3.2 km/h 9.7 km/h 92 % 0.0 mm
05:02 9.3 °C 8.1 °C 1006.7 hPa Calm   12.9 km/h 92 % 0.0 mm
05:07 9.2 °C 8.0 °C 1006.7 hPa South 1.6 km/h 12.9 km/h 92 % 0.0 mm
05:12 9.2 °C 8.0 °C 1007.0 hPa SSE 1.6 km/h 12.9 km/h 92 % 0.0 mm
05:17 9.1 °C 8.0 °C 1007.0 hPa South 3.2 km/h 4.8 km/h 93 % 0.0 mm
05:22 9.1 °C 8.0 °C 1007.0 hPa South 3.2 km/h 4.8 km/h 93 % 0.0 mm
05:32 9.0 °C 7.9 °C 1007.3 hPa Calm   8.0 km/h 93 % 0.0 mm
05:37 9.0 °C 7.9 °C 1007.3 hPa SE 1.6 km/h 6.4 km/h 93 % 0.0 mm
05:42 9.0 °C 7.9 °C 1007.3 hPa ESE 3.2 km/h 6.4 km/h 93 % 0.0 mm
05:47 9.0 °C 7.9 °C 1007.3 hPa SE 1.6 km/h 8.0 km/h 93 % 0.0 mm
05:52 9.1 °C 8.0 °C 1007.3 hPa Calm   8.0 km/h 93 % 0.0 mm
05:57 9.1 °C 8.0 °C 1007.3 hPa SE 1.6 km/h 8.0 km/h 93 % 0.0 mm
06:02 9.1 °C 8.0 °C 1007.7 hPa ESE 3.2 km/h 8.0 km/h 93 % 0.0 mm
06:07 9.1 °C 8.0 °C 1007.7 hPa ESE 3.2 km/h 8.0 km/h 93 % 0.0 mm
06:12 9.1 °C 8.0 °C 1007.7 hPa SE 3.2 km/h 8.0 km/h 93 % 0.0 mm
06:17 9.1 °C 8.0 °C 1008.0 hPa SSE 4.8 km/h 9.7 km/h 93 % 0.0 mm
06:22 9.2 °C 8.1 °C 1008.0 hPa ESE 4.8 km/h 9.7 km/h 93 % 0.0 mm
06:32 9.1 °C 8.0 °C 1008.0 hPa Calm   14.5 km/h 93 % 0.0 mm
06:37 9.1 °C 8.0 °C 1008.0 hPa ESE 1.6 km/h 14.5 km/h 93 % 0.0 mm
06:42 9.1 °C 8.0 °C 1008.0 hPa SSE 1.6 km/h 11.3 km/h 93 % 0.0 mm
06:52 9.1 °C 8.0 °C 1008.0 hPa South 8.0 km/h 9.7 km/h 93 % 0.0 mm
06:57 9.1 °C 8.0 °C 1008.0 hPa South 3.2 km/h 9.7 km/h 93 % 0.0 mm
07:02 9.2 °C 8.1 °C 1008.4 hPa SSE 1.6 km/h 11.3 km/h 93 % 0.0 mm
07:12 9.1 °C 8.0 °C 1008.4 hPa SE 8.0 km/h 11.3 km/h 93 % 0.0 mm
07:22 9.1 °C 8.0 °C 1008.7 hPa ESE 3.2 km/h 11.3 km/h 93 % 0.0 mm
07:32 9.2 °C 8.1 °C 1008.4 hPa ESE 6.4 km/h 9.7 km/h 93 % 0.0 mm
07:42 9.2 °C 8.1 °C 1008.7 hPa SSE 1.6 km/h 11.3 km/h 93 % 0.0 mm
07:47 9.2 °C 8.1 °C 1009.0 hPa SE 6.4 km/h 11.3 km/h 93 % 0.0 mm
07:52 9.3 °C 8.2 °C 1009.0 hPa ESE 1.6 km/h 11.3 km/h 93 % 0.0 mm
07:57 9.3 °C 8.2 °C 1009.0 hPa South 3.2 km/h 14.5 km/h 93 % 0.0 mm
08:02 9.3 °C 8.2 °C 1009.4 hPa SSE 3.2 km/h 14.5 km/h 93 % 0.0 mm
08:07 9.3 °C 8.2 °C 1009.4 hPa SE 1.6 km/h 14.5 km/h 93 % 0.0 mm
08:12 9.3 °C 8.2 °C 1009.4 hPa SSE 4.8 km/h 14.5 km/h 93 % 0.0 mm
08:22 9.3 °C 8.2 °C 1009.4 hPa South 4.8 km/h 14.5 km/h 93 % 0.0 mm
08:42 9.3 °C 8.2 °C 1010.0 hPa Calm   9.7 km/h 93 % 0.0 mm
08:52 9.3 °C 8.2 °C 1010.0 hPa SE 1.6 km/h 8.0 km/h 93 % 0.0 mm
09:02 9.3 °C 8.2 °C 1010.0 hPa Calm   4.8 km/h 93 % 0.0 mm
09:12 9.3 °C 8.2 °C 1010.0 hPa SSE 1.6 km/h 4.8 km/h 93 % 0.0 mm
09:22 9.4 °C 8.3 °C 1010.0 hPa SE 3.2 km/h 8.0 km/h 93 % 0.0 mm
09:32 9.4 °C 8.3 °C 1010.0 hPa SSE 9.7 km/h 9.7 km/h 93 % 0.0 mm
09:42 9.5 °C 8.4 °C 1010.0 hPa Calm   12.9 km/h 93 % 0.0 mm
09:52 9.6 °C 8.4 °C 1010.0 hPa Calm   12.9 km/h 92 % 0.0 mm
09:57 9.6 °C 8.4 °C 1010.4 hPa SSE 1.6 km/h 11.3 km/h 92 % 0.0 mm
10:02 9.6 °C 8.4 °C 1010.4 hPa SE 3.2 km/h 11.3 km/h 92 % 0.0 mm
10:07 9.7 °C 8.5 °C 1010.4 hPa SSE 6.4 km/h 9.7 km/h 92 % 0.0 mm
10:12 9.7 °C 8.5 °C 1010.4 hPa SSE 3.2 km/h 9.7 km/h 92 % 0.0 mm
10:17 9.7 °C 8.5 °C 1010.4 hPa SE 3.2 km/h 9.7 km/h 92 % 0.0 mm
10:22 9.8 °C 8.6 °C 1010.4 hPa SSE 1.6 km/h 9.7 km/h 92 % 0.0 mm
10:32 9.8 °C 8.6 °C 1010.7 hPa SE 1.6 km/h 8.0 km/h 92 % 0.0 mm
10:42 9.8 °C 8.6 °C 1010.7 hPa ESE 6.4 km/h 12.9 km/h 92 % 0.0 mm
10:52 9.9 °C 8.7 °C 1010.7 hPa SE 1.6 km/h 12.9 km/h 92 % 0.0 mm
11:02 9.8 °C 8.4 °C 1010.7 hPa SSE 3.2 km/h 11.3 km/h 91 % 0.0 mm
11:12 9.9 °C 8.5 °C 1011.1 hPa SSE 6.4 km/h 14.5 km/h 91 % 0.0 mm
11:17 9.9 °C 8.5 °C 1010.7 hPa South 8.0 km/h 16.1 km/h 91 % 0.0 mm
11:22 9.9 °C 8.5 °C 1010.7 hPa South 8.0 km/h 16.1 km/h 91 % 0.0 mm
11:32 10.1 °C 8.5 °C 1010.7 hPa SSE 6.4 km/h 16.1 km/h 90 % 0.0 mm
11:42 10.1 °C 8.5 °C 1010.7 hPa SE 4.8 km/h 17.7 km/h 90 % 0.0 mm
11:52 10.1 °C 8.4 °C 1010.4 hPa SSW 4.8 km/h 14.5 km/h 89 % 0.0 mm
12:02 10.1 °C 8.4 °C 1010.4 hPa East 3.2 km/h 14.5 km/h 89 % 0.0 mm
12:07 10.1 °C 8.4 °C 1010.4 hPa ESE 3.2 km/h 16.1 km/h 89 % 0.0 mm
12:17 10.1 °C 8.4 °C 1010.4 hPa SW 6.4 km/h 16.1 km/h 89 % 0.0 mm
12:22 10.1 °C 8.2 °C 1010.4 hPa ESE 12.9 km/h 16.1 km/h 88 % 0.0 mm
12:32 10.1 °C 8.0 °C 1010.7 hPa SE 8.0 km/h 17.7 km/h 87 % 0.0 mm
12:37 10.1 °C 8.2 °C 1010.7 hPa SSE 4.8 km/h 17.7 km/h 88 % 0.0 mm
12:42 10.2 °C 8.3 °C 1010.7 hPa SSE 1.6 km/h 20.9 km/h 88 % 0.0 mm
12:52 10.2 °C 8.3 °C 1010.7 hPa SSE 6.4 km/h 14.5 km/h 88 % 0.0 mm
13:02 10.1 °C 8.2 °C 1010.4 hPa South 1.6 km/h 14.5 km/h 88 % 0.0 mm
13:12 10.0 °C 8.1 °C 1010.4 hPa SSE 8.0 km/h 14.5 km/h 88 % 0.0 mm
13:22 9.9 °C 8.2 °C 1010.7 hPa SSE 6.4 km/h 19.3 km/h 89 % 0.0 mm
13:32 9.9 °C 8.2 °C 1010.7 hPa SE 4.8 km/h 16.1 km/h 89 % 0.0 mm
13:37 9.9 °C 8.2 °C 1010.7 hPa SSW 9.7 km/h 12.9 km/h 89 % 0.0 mm
13:42 9.9 °C 8.2 °C 1010.7 hPa SSE 3.2 km/h 12.9 km/h 89 % 0.0 mm
13:52 10.0 °C 8.1 °C 1010.7 hPa SSE 8.0 km/h 17.7 km/h 88 % 0.0 mm
13:57 9.9 °C 8.0 °C 1010.7 hPa Calm   16.1 km/h 88 % 0.0 mm
14:02 9.9 °C 8.2 °C 1010.7 hPa SSW 6.4 km/h 16.1 km/h 89 % 0.0 mm
14:07 9.8 °C 7.9 °C 1010.7 hPa South 8.0 km/h 16.1 km/h 88 % 0.0 mm
14:12 9.8 °C 8.1 °C 1010.7 hPa SSE 8.0 km/h 16.1 km/h 89 % 0.0 mm
14:17 9.8 °C 8.1 °C 1010.7 hPa SSE 4.8 km/h 16.1 km/h 89 % 0.0 mm
14:22 9.8 °C 8.2 °C 1010.7 hPa South 4.8 km/h 16.1 km/h 90 % 0.0 mm
14:27 9.8 °C 8.1 °C 1010.7 hPa SSW 3.2 km/h 16.1 km/h 89 % 0.0 mm
14:32 9.8 °C 8.2 °C 1010.7 hPa SSW 8.0 km/h 16.1 km/h 90 % 0.0 mm
14:42 9.8 °C 8.2 °C 1010.7 hPa SSW 3.2 km/h 11.3 km/h 90 % 0.0 mm
14:47 9.8 °C 8.1 °C 1010.7 hPa SSW 3.2 km/h 11.3 km/h 89 % 0.0 mm
14:52 9.8 °C 8.1 °C 1011.1 hPa South 1.6 km/h 11.3 km/h 89 % 0.0 mm
14:57 9.8 °C 8.1 °C 1010.7 hPa South 3.2 km/h 11.3 km/h 89 % 0.0 mm
15:02 9.7 °C 8.1 °C 1010.7 hPa SSE 3.2 km/h 11.3 km/h 90 % 0.0 mm
15:07 9.8 °C 8.2 °C 1010.7 hPa South 1.6 km/h 11.3 km/h 90 % 0.0 mm
15:12 9.8 °C 8.2 °C 1011.1 hPa South 1.6 km/h 11.3 km/h 90 % 0.0 mm
15:17 9.8 °C 8.2 °C 1011.1 hPa South 4.8 km/h 8.0 km/h 90 % 0.0 mm
15:22 9.8 °C 8.2 °C 1011.1 hPa SSW 1.6 km/h 8.0 km/h 90 % 0.0 mm
15:32 9.8 °C 8.2 °C 1011.1 hPa Calm   8.0 km/h 90 % 0.0 mm
15:42 9.8 °C 8.2 °C 1011.1 hPa SSW 1.6 km/h 4.8 km/h 90 % 0.0 mm
15:52 9.8 °C 8.2 °C 1011.1 hPa SW 1.6 km/h 3.2 km/h 90 % 0.0 mm
15:57 9.7 °C 8.1 °C 1011.4 hPa SSE 1.6 km/h 6.4 km/h 90 % 0.0 mm
16:02 9.7 °C 8.1 °C 1011.4 hPa South 1.6 km/h 6.4 km/h 90 % 0.0 mm
16:07 9.7 °C 8.1 °C 1011.1 hPa Calm   6.4 km/h 90 % 0.0 mm
16:12 9.7 °C 8.1 °C 1011.1 hPa Calm   6.4 km/h 90 % 0.0 mm
16:17 9.6 °C 8.0 °C 1011.1 hPa Calm   3.2 km/h 90 % 0.0 mm
16:22 9.6 °C 8.2 °C 1011.1 hPa Calm   3.2 km/h 91 % 0.0 mm
16:27 9.6 °C 8.2 °C 1011.1 hPa Calm     91 % 0.0 mm
16:32 9.6 °C 8.2 °C 1011.1 hPa Calm     91 % 0.0 mm
16:37 9.6 °C 8.2 °C 1011.1 hPa Calm     91 % 0.0 mm
16:42 9.6 °C 8.2 °C 1011.4 hPa Calm     91 % 0.0 mm
16:47 9.5 °C 8.1 °C 1011.4 hPa Calm     91 % 0.0 mm
16:52 9.4 °C 8.2 °C 1011.4 hPa Calm     92 % 0.0 mm
16:57 9.4 °C 8.2 °C 1011.7 hPa Calm     92 % 0.0 mm
17:02 9.4 °C 8.2 °C 1011.4 hPa Calm     92 % 0.0 mm
17:07 9.3 °C 8.1 °C 1011.7 hPa Calm   1.6 km/h 92 % 0.0 mm
17:12 9.3 °C 8.1 °C 1011.7 hPa Calm   1.6 km/h 92 % 0.0 mm
17:17 9.2 °C 8.0 °C 1011.7 hPa Calm   1.6 km/h 92 % 0.0 mm
17:22 9.2 °C 8.0 °C 1012.1 hPa West 1.6 km/h 1.6 km/h 92 % 0.0 mm
17:27 9.3 °C 8.1 °C 1011.7 hPa Calm   1.6 km/h 92 % 0.0 mm
17:32 9.3 °C 8.1 °C 1012.1 hPa Calm   1.6 km/h 92 % 0.0 mm
17:37 9.3 °C 7.9 °C 1011.7 hPa Calm   1.6 km/h 91 % 0.0 mm
17:47 9.3 °C 8.1 °C 1011.7 hPa Calm     92 % 0.0 mm
17:52 9.3 °C 8.1 °C 1011.4 hPa Calm     92 % 0.0 mm
17:57 9.2 °C 8.0 °C 1011.4 hPa Calm   4.8 km/h 92 % 0.0 mm
18:02 9.2 °C 8.0 °C 1011.7 hPa ENE 1.6 km/h 4.8 km/h 92 % 0.0 mm
18:17 8.9 °C 7.8 °C 1011.4 hPa ENE 1.6 km/h 4.8 km/h 93 % 0.0 mm
18:27 8.9 °C 7.8 °C 1011.7 hPa East 1.6 km/h 4.8 km/h 93 % 0.0 mm
18:32 8.8 °C 7.7 °C 1011.7 hPa Calm   3.2 km/h 93 % 0.0 mm
18:37 8.8 °C 7.7 °C 1011.7 hPa Calm   3.2 km/h 93 % 0.0 mm
18:42 8.8 °C 7.7 °C 1011.7 hPa East 1.6 km/h 3.2 km/h 93 % 0.0 mm
18:52 8.9 °C 7.8 °C 1011.7 hPa East 3.2 km/h 6.4 km/h 93 % 0.0 mm
18:57 9.1 °C 8.0 °C 1011.7 hPa ENE 4.8 km/h 11.3 km/h 93 % 0.0 mm
19:07 9.2 °C 8.1 °C 1011.7 hPa East 3.2 km/h 11.3 km/h 93 % 0.0 mm
19:12 9.2 °C 8.1 °C 1011.7 hPa East 1.6 km/h 11.3 km/h 93 % 0.0 mm
19:17 9.2 °C 8.1 °C 1011.7 hPa East 3.2 km/h 6.4 km/h 93 % 0.0 mm
19:22 9.2 °C 8.1 °C 1011.4 hPa NE 6.4 km/h 6.4 km/h 93 % 0.0 mm
19:27 9.2 °C 8.1 °C 1011.4 hPa East 3.2 km/h 11.3 km/h 93 % 0.0 mm
19:32 9.2 °C 8.1 °C 1011.7 hPa Calm   11.3 km/h 93 % 0.0 mm
19:37 9.2 °C 8.1 °C 1011.7 hPa ENE 4.8 km/h 8.0 km/h 93 % 0.0 mm
19:42 9.2 °C 8.1 °C 1011.7 hPa East 3.2 km/h 8.0 km/h 93 % 0.0 mm
19:52 9.0 °C 7.9 °C 1011.7 hPa NE 3.2 km/h 6.4 km/h 93 % 0.0 mm
19:57 8.9 °C 8.0 °C 1011.7 hPa ENE 4.8 km/h 8.0 km/h 94 % 0.0 mm
20:02 8.9 °C 8.0 °C 1011.7 hPa NE 3.2 km/h 8.0 km/h 94 % 0.0 mm
20:12 8.9 °C 8.0 °C 1011.7 hPa NE 4.8 km/h 6.4 km/h 94 % 0.0 mm
20:17 8.9 °C 8.0 °C 1011.4 hPa NE 8.0 km/h 9.7 km/h 94 % 0.0 mm
20:22 8.9 °C 8.0 °C 1011.7 hPa NE 3.2 km/h 9.7 km/h 94 % 0.0 mm
20:27 8.9 °C 8.0 °C 1011.7 hPa NE 3.2 km/h 9.7 km/h 94 % 0.0 mm
20:37 8.9 °C 8.0 °C 1012.1 hPa NE 3.2 km/h 4.8 km/h 94 % 0.0 mm
20:42 8.9 °C 8.0 °C 1012.1 hPa ENE 1.6 km/h 4.8 km/h 94 % 0.0 mm
20:47 8.9 °C 8.0 °C 1012.1 hPa ENE 3.2 km/h 6.4 km/h 94 % 0.0 mm
21:07 8.8 °C 7.9 °C 1012.1 hPa Calm   4.8 km/h 94 % 0.5 mm
21:17 8.8 °C 8.0 °C 1012.4 hPa NNW 3.2 km/h 8.0 km/h 95 % 1.0 mm
21:22 8.8 °C 8.0 °C 1012.1 hPa NNW 3.2 km/h 8.0 km/h 95 % 1.0 mm
21:27 8.7 °C 7.9 °C 1012.1 hPa NW 4.8 km/h 8.0 km/h 95 % 1.5 mm
21:32 8.7 °C 7.9 °C 1011.7 hPa NNE 4.8 km/h 8.0 km/h 95 % 1.5 mm
21:42 8.7 °C 7.9 °C 1012.1 hPa NE 11.3 km/h 12.9 km/h 95 % 2.3 mm
21:52 8.7 °C 8.1 °C 1012.4 hPa NE 6.4 km/h 12.9 km/h 96 % 2.3 mm
22:02 8.7 °C 8.1 °C 1012.1 hPa NNE 3.2 km/h 12.9 km/h 96 % 2.5 mm
22:12 8.6 °C 8.0 °C 1011.7 hPa North 3.2 km/h 9.7 km/h 96 % 2.3 mm
22:17 8.6 °C 8.0 °C 1011.7 hPa NW 1.6 km/h 12.9 km/h 96 % 2.0 mm
22:22 8.6 °C 8.0 °C 1011.7 hPa NE 8.0 km/h 12.9 km/h 96 % 2.0 mm
22:32 8.6 °C 8.0 °C 1011.7 hPa NE 12.9 km/h 14.5 km/h 96 % 1.5 mm
22:37 8.6 °C 8.0 °C 1011.4 hPa NNW 4.8 km/h 16.1 km/h 96 % 1.3 mm
22:47 8.6 °C 8.0 °C 1011.7 hPa NNE 1.6 km/h 16.1 km/h 96 % 1.0 mm
22:52 8.6 °C 8.0 °C 1011.7 hPa North 6.4 km/h 16.1 km/h 96 % 1.0 mm
22:57 8.6 °C 8.0 °C 1011.7 hPa North 4.8 km/h 12.9 km/h 96 % 1.0 mm
23:02 8.6 °C 8.0 °C 1011.7 hPa NNE 6.4 km/h 12.9 km/h 96 % 1.0 mm
23:12 8.6 °C 8.0 °C 1011.4 hPa North 8.0 km/h 12.9 km/h 96 % 0.8 mm
23:22 8.7 °C 8.1 °C 1011.1 hPa ENE 9.7 km/h 14.5 km/h 96 % 0.5 mm
23:32 8.7 °C 8.1 °C 1011.7 hPa North 9.7 km/h 20.9 km/h 96 % 0.5 mm
23:37 8.7 °C 8.1 °C 1011.7 hPa NE 11.3 km/h 17.7 km/h 96 % 0.3 mm
23:42 8.7 °C 8.1 °C 1011.4 hPa NNE 9.7 km/h 17.7 km/h 96 % 0.3 mm
23:52 8.7 °C 8.1 °C 1011.4 hPa NNE 6.4 km/h 16.1 km/h 96 % 0.3 mm
23:57 8.7 °C 8.1 °C 1011.4 hPa NNE 4.8 km/h 16.1 km/h 96 % 0.0 mm
Meteo18
Compliments of Weather Underground - 4 mb

Script developed by  Jim McMurry - jmcmurry@mwt.net Adapted for the template by  Wim van der Kuil - Leuven-Template.eu

You find our weather info also at:

European Weather Network

Weather Underground

Equipment we use:

Weather-station
Davis Vue

Weather-program
Meteohub

Weather-server
Raspberry PI 2 B+

Provider
1 and 1

Davis Vue

Meteohub

Raspberry PI 2 B+

1 and 1